CheckWX is a tool to help pilots better visualize weather data.  It is not intended as a substitute for an official pre-flight weather briefing.

00:39:43 UTC

EFHA METAR
Halli Airport
Halli / Kuorevesi, Finland
Current

20 mins ago

EFHA 270020Z AUTO 29004KT CAVOK M07/M09 Q1015
Observed
Mar-27 @ 00:20 UTC
Wind
  • 290° at 4 KTS
Visibility
10,000+ meters
Flight Rules
VFR
Cloud Levels
  • Clear skies
Temperature
-7°C / 19°F
Dewpoint
-9°C / 16°F
Humidity
86%
Altimeter
29.97" Hg
Pressure
1014.92 hPa
Previous

50 mins ago

EFHA 262350Z AUTO 30005KT CAVOK M06/M09 Q1015
Observed
Mar-26 @ 23:50 UTC
Wind
  • 300° at 5 KTS
Visibility
10,000+ meters
Flight Rules
VFR
Cloud Levels
  • Clear skies
Temperature
-6°C / 21°F
Dewpoint
-9°C / 16°F
Humidity
80%
Altimeter
29.97" Hg
Pressure
1014.92 hPa
Previous

1 hour ago

EFHA 262320Z AUTO 30004KT CAVOK M06/M09 Q1014
Observed
Mar-26 @ 23:20 UTC
Wind
  • 300° at 4 KTS
Visibility
10,000+ meters
Flight Rules
VFR
Cloud Levels
  • Clear skies
Temperature
-6°C / 21°F
Dewpoint
-9°C / 16°F
Humidity
80%
Altimeter
29.94" Hg
Pressure
1013.92 hPa